Time,TemperatureF,DewpointF,PressureIn,WindDirection,WindDirectionDegrees,WindSpeedMPH,WindSpeedGustMPH,Humidity,HourlyPrecipIn,Conditions,Clouds,dailyrainin,SoftwareType,DateUTC
2013-09-04 00:02:00,54.0,50.0,30.08,NNW,327,0.0,0.0,87,0.00,,,-99.99,,2013-09-04 06:02:00,
2013-09-04 00:12:00,54.0,50.0,30.08,NNW,327,0.0,0.0,87,0.00,,,-99.99,,2013-09-04 06:12:00,
2013-09-04 00:22:00,53.0,50.0,30.07,NNW,327,0.0,0.0,89,0.00,,,-99.99,,2013-09-04 06:22:00,
2013-09-04 00:32:00,53.0,50.0,30.07,NNW,327,0.0,0.0,89,0.00,,,-99.99,,2013-09-04 06:32:00,
2013-09-04 00:52:00,53.0,50.0,30.06,NNW,327,0.0,0.0,89,0.00,,,-99.99,,2013-09-04 06:52:00,
2013-09-04 01:02:00,53.0,50.0,30.06,NNW,327,0.0,0.0,89,0.00,,,-99.99,,2013-09-04 07:02:00,
2013-09-04 01:11:00,53.0,50.0,30.06,NNW,327,0.0,0.0,89,0.00,,,-99.99,,2013-09-04 07:11:00,
2013-09-04 01:22:00,53.0,50.0,30.06,West,281,0.0,0.0,88,0.00,,,-99.99,,2013-09-04 07:22:00,
2013-09-04 01:32:00,53.0,50.0,30.06,West,281,0.0,0.0,88,0.00,,,-99.99,,2013-09-04 07:32:00,
2013-09-04 01:52:00,53.0,50.0,30.07,West,281,0.0,0.0,88,0.00,,,-99.99,,2013-09-04 07:52:00,
2013-09-04 02:02:00,53.0,50.0,30.07,West,281,0.0,0.0,88,0.00,,,-99.99,,2013-09-04 08:02:00,
2013-09-04 02:22:00,52.0,49.0,30.05,West,281,0.0,0.0,90,0.00,,,-99.99,,2013-09-04 08:22:00,
2013-09-04 02:32:00,52.0,49.0,30.05,West,281,0.0,0.0,90,0.00,,,-99.99,,2013-09-04 08:32:00,
2013-09-04 02:52:00,52.0,49.0,30.06,West,281,0.0,0.0,89,0.00,,,-99.99,,2013-09-04 08:52:00,
2013-09-04 03:01:00,52.0,49.0,30.06,West,281,0.0,0.0,89,0.00,,,-99.99,,2013-09-04 09:01:00,
2013-09-04 03:21:00,53.0,50.0,30.06,West,281,0.0,1.0,89,0.00,,,-99.99,,2013-09-04 09:21:00,
2013-09-04 03:33:00,53.0,50.0,30.06,West,281,0.0,1.0,89,0.00,,,-99.99,,2013-09-04 09:33:00,
2013-09-04 03:43:00,53.0,50.0,30.06,West,281,0.0,1.0,89,0.00,,,-99.99,,2013-09-04 09:43:00,
2013-09-04 03:53:00,52.0,49.0,30.05,West,281,0.0,1.0,89,0.00,,,-99.99,,2013-09-04 09:53:00,
2013-09-04 04:03:00,52.0,49.0,30.05,West,281,0.0,1.0,89,0.00,,,-99.99,,2013-09-04 10:03:00,
2013-09-04 04:23:00,52.0,49.0,30.05,West,281,0.0,0.0,89,0.00,,,-99.99,,2013-09-04 10:23:00,
2013-09-04 04:32:00,52.0,49.0,30.05,West,281,0.0,0.0,89,0.00,,,-99.99,,2013-09-04 10:32:00,
2013-09-04 04:52:00,52.0,49.0,30.05,West,281,0.0,0.0,89,0.00,,,-99.99,,2013-09-04 10:52:00,
2013-09-04 05:02:00,52.0,49.0,30.05,West,281,0.0,0.0,89,0.00,,,-99.99,,2013-09-04 11:02:00,
2013-09-04 05:22:00,52.0,49.0,30.06,West,281,0.0,1.0,89,0.00,,,-99.99,,2013-09-04 11:22:00,
2013-09-04 05:32:00,52.0,49.0,30.06,West,281,0.0,1.0,89,0.00,,,-99.99,,2013-09-04 11:32:00,
2013-09-04 05:52:00,51.0,48.0,30.06,West,281,0.0,0.0,91,0.00,,,-99.99,,2013-09-04 11:52:00,
2013-09-04 06:01:00,51.0,48.0,30.06,West,281,0.0,0.0,91,0.00,,,-99.99,,2013-09-04 12:01:00,
2013-09-04 06:11:00,51.0,48.0,30.06,West,281,0.0,0.0,91,0.00,,,-99.99,,2013-09-04 12:11:00,
2013-09-04 06:21:00,51.0,48.0,30.06,West,281,0.0,0.0,91,0.00,,,-99.99,,2013-09-04 12:21:00,
2013-09-04 06:32:00,51.0,48.0,30.06,West,281,0.0,0.0,91,0.00,,,-99.99,,2013-09-04 12:32:00,
2013-09-04 06:52:00,51.0,48.0,30.07,West,281,0.0,2.0,91,0.00,,,-99.99,,2013-09-04 12:52:00,
2013-09-04 07:11:00,51.0,48.0,30.07,West,281,0.0,2.0,91,0.00,,,-99.99,,2013-09-04 13:11:00,
2013-09-04 07:21:00,51.0,48.0,30.08,West,281,0.0,0.0,90,0.00,,,-99.99,,2013-09-04 13:21:00,
2013-09-04 07:31:00,51.0,48.0,30.08,West,281,0.0,0.0,90,0.00,,,-99.99,,2013-09-04 13:31:00,
2013-09-04 07:52:00,51.0,49.0,30.09,West,281,0.0,0.0,92,0.01,,,-99.99,,2013-09-04 13:52:00,
2013-09-04 08:21:00,51.0,49.0,30.09,West,281,0.0,2.0,92,0.01,,,-99.99,,2013-09-04 14:21:00,
2013-09-04 08:52:00,55.0,52.0,30.09,West,281,0.0,0.0,88,0.00,,,-99.99,,2013-09-04 14:52:00,
2013-09-04 09:01:00,55.0,52.0,30.09,West,281,0.0,0.0,88,0.00,,,-99.99,,2013-09-04 15:01:00,
2013-09-04 09:22:00,59.0,53.0,30.09,West,281,0.0,0.0,80,0.00,,,-99.99,,2013-09-04 15:22:00,
2013-09-04 09:33:00,59.0,53.0,30.09,West,281,0.0,0.0,80,0.00,,,-99.99,,2013-09-04 15:33:00,
2013-09-04 10:23:00,66.0,54.0,30.08,NW,315,0.0,5.0,65,0.00,,,-99.99,,2013-09-04 16:23:00,
2013-09-04 10:34:00,66.0,54.0,30.08,NW,315,0.0,5.0,65,0.00,,,-99.99,,2013-09-04 16:34:00,
2013-09-04 10:53:00,66.0,53.0,30.09,NNW,342,0.0,4.0,64,0.00,,,-99.99,,2013-09-04 16:53:00,
2013-09-04 11:03:00,66.0,53.0,30.09,NNW,342,0.0,4.0,64,0.00,,,-99.99,,2013-09-04 17:03:00,
2013-09-04 11:22:00,66.0,53.0,30.10,ENE,70,0.0,2.0,64,0.00,,,-99.99,,2013-09-04 17:22:00,
2013-09-04 11:34:00,66.0,53.0,30.10,ENE,70,0.0,2.0,64,0.00,,,-99.99,,2013-09-04 17:34:00,
2013-09-04 11:52:00,71.0,55.0,30.08,East,80,0.0,2.0,57,0.00,,,-99.99,,2013-09-04 17:52:00,
2013-09-04 12:02:00,71.0,55.0,30.08,East,80,0.0,2.0,57,0.00,,,-99.99,,2013-09-04 18:02:00,
2013-09-04 12:12:00,71.0,55.0,30.08,East,80,0.0,2.0,57,0.00,,,-99.99,,2013-09-04 18:12:00,
2013-09-04 12:21:00,75.0,56.0,30.08,North,11,1.0,4.0,52,0.00,,,-99.99,,2013-09-04 18:21:00,
2013-09-04 12:32:00,75.0,56.0,30.08,North,11,1.0,4.0,52,0.00,,,-99.99,,2013-09-04 18:32:00,
2013-09-04 12:52:00,75.0,56.0,30.07,WNW,292,2.0,5.0,51,0.00,,,-99.99,,2013-09-04 18:52:00,
2013-09-04 13:02:00,75.0,56.0,30.07,WNW,292,2.0,5.0,51,0.00,,,-99.99,,2013-09-04 19:02:00,
2013-09-04 13:11:00,75.0,56.0,30.07,WNW,292,2.0,5.0,51,0.00,,,-99.99,,2013-09-04 19:11:00,
2013-09-04 13:22:00,77.0,57.0,30.07,East,98,0.0,7.0,50,0.00,,,-99.99,,2013-09-04 19:22:00,
2013-09-04 13:32:00,77.0,57.0,30.07,East,98,0.0,7.0,50,0.00,,,-99.99,,2013-09-04 19:32:00,
2013-09-04 13:52:00,79.0,55.0,30.06,North,350,0.0,5.0,44,0.00,,,-99.99,,2013-09-04 19:52:00,
2013-09-04 14:02:00,79.0,55.0,30.06,North,350,0.0,5.0,44,0.00,,,-99.99,,2013-09-04 20:02:00,
2013-09-04 14:11:00,79.0,55.0,30.06,North,350,0.0,5.0,44,0.00,,,-99.99,,2013-09-04 20:11:00,
2013-09-04 14:22:00,81.0,56.0,30.07,ESE,105,2.0,7.0,43,0.00,,,-99.99,,2013-09-04 20:22:00,
2013-09-04 14:32:00,81.0,56.0,30.07,ESE,105,2.0,7.0,43,0.00,,,-99.99,,2013-09-04 20:32:00,
2013-09-04 14:53:00,80.0,54.0,30.07,WNW,294,3.0,7.0,41,0.00,,,0.00,,2013-09-04 20:53:00,
2013-09-04 15:01:00,80.0,54.0,30.07,WNW,294,3.0,7.0,41,0.00,,,0.00,,2013-09-04 21:01:00,
2013-09-04 15:22:00,81.0,54.0,30.06,ESE,102,1.0,5.0,40,0.00,,,0.00,,2013-09-04 21:22:00,
2013-09-04 15:34:00,81.0,54.0,30.06,ESE,102,1.0,5.0,40,0.00,,,0.00,,2013-09-04 21:34:00,
2013-09-04 15:54:00,81.0,54.0,30.05,South,169,1.0,5.0,40,0.00,,,0.00,,2013-09-04 21:54:00,
2013-09-04 16:04:00,81.0,54.0,30.05,South,169,1.0,5.0,40,0.00,,,0.00,,2013-09-04 22:04:00,
2013-09-04 16:23:00,82.0,54.0,30.04,West,269,1.0,6.0,38,0.00,,,0.00,,2013-09-04 22:23:00,
2013-09-04 16:33:00,82.0,54.0,30.04,West,269,1.0,6.0,38,0.00,,,0.00,,2013-09-04 22:33:00,
2013-09-04 16:54:00,81.0,52.0,30.04,East,88,1.0,5.0,36,0.00,,,0.00,,2013-09-04 22:54:00,
2013-09-04 17:03:00,81.0,52.0,30.04,East,88,1.0,5.0,36,0.00,,,0.00,,2013-09-04 23:03:00,
2013-09-04 17:22:00,81.0,53.0,30.04,East,95,1.0,3.0,38,0.00,,,0.00,,2013-09-04 23:22:00,
2013-09-04 17:34:00,81.0,53.0,30.04,East,95,1.0,3.0,38,0.00,,,0.00,,2013-09-04 23:34:00,
2013-09-04 17:52:00,82.0,52.0,30.03,SSW,205,1.0,4.0,36,0.00,,,0.00,,2013-09-04 23:52:00,
2013-09-04 18:01:00,82.0,52.0,30.03,SSW,205,1.0,4.0,36,0.00,,,0.00,,2013-09-05 00:01:00,
2013-09-04 18:11:00,82.0,52.0,30.03,SSW,205,1.0,4.0,36,0.00,,,0.00,,2013-09-05 00:11:00,
2013-09-04 18:22:00,81.0,52.0,30.03,West,260,1.0,3.0,36,0.00,,,0.00,,2013-09-05 00:22:00,
2013-09-04 18:32:00,81.0,52.0,30.03,West,260,1.0,3.0,36,0.00,,,0.00,,2013-09-05 00:32:00,
2013-09-04 18:43:00,81.0,52.0,30.03,West,260,1.0,3.0,36,0.00,,,0.00,,2013-09-05 00:43:00,
2013-09-04 18:52:00,80.0,51.0,30.01,NNE,32,1.0,4.0,36,0.00,,,0.00,,2013-09-05 00:52:00,
2013-09-04 19:01:00,80.0,51.0,30.01,NNE,32,1.0,4.0,36,0.00,,,0.00,,2013-09-05 01:01:00,
2013-09-04 19:11:00,80.0,51.0,30.01,NNE,32,1.0,4.0,36,0.00,,,0.00,,2013-09-05 01:11:00,
2013-09-04 19:21:00,79.0,49.0,30.00,NE,42,0.0,2.0,35,0.00,,,0.00,,2013-09-05 01:21:00,
2013-09-04 19:32:00,79.0,49.0,30.00,NE,42,0.0,2.0,35,0.00,,,0.00,,2013-09-05 01:32:00,
2013-09-04 19:42:00,79.0,49.0,30.00,NE,42,0.0,2.0,35,0.00,,,0.00,,2013-09-05 01:42:00,
2013-09-04 19:52:00,78.0,51.0,30.01,NNE,17,0.0,0.0,39,0.00,,,0.00,,2013-09-05 01:52:00,
2013-09-04 20:02:00,78.0,51.0,30.01,NNE,17,0.0,0.0,39,0.00,,,0.00,,2013-09-05 02:02:00,
2013-09-04 20:11:00,78.0,51.0,30.01,NNE,17,0.0,0.0,39,0.00,,,0.00,,2013-09-05 02:11:00,
2013-09-04 20:21:00,73.0,53.0,30.00,NNE,17,0.0,0.0,50,0.00,,,0.00,,2013-09-05 02:21:00,
2013-09-04 20:32:00,73.0,53.0,30.00,NNE,17,0.0,0.0,50,0.00,,,0.00,,2013-09-05 02:32:00,
2013-09-04 20:42:00,73.0,53.0,30.00,NNE,17,0.0,0.0,50,0.00,,,0.00,,2013-09-05 02:42:00,
2013-09-04 21:22:00,66.0,49.0,30.01,NNE,17,0.0,1.0,54,0.00,,,0.00,,2013-09-05 03:22:00,
2013-09-04 21:34:00,66.0,49.0,30.01,NNE,17,0.0,1.0,54,0.00,,,0.00,,2013-09-05 03:34:00,
2013-09-04 21:45:00,66.0,49.0,30.01,NNE,17,0.0,1.0,54,0.00,,,0.00,,2013-09-05 03:45:00,
2013-09-04 21:54:00,64.0,47.0,30.03,North,5,0.0,2.0,55,0.00,,,0.00,,2013-09-05 03:54:00,
2013-09-04 22:04:00,64.0,47.0,30.03,North,5,0.0,2.0,55,0.00,,,0.00,,2013-09-05 04:04:00,
2013-09-04 22:13:00,64.0,47.0,30.03,North,5,0.0,2.0,55,0.00,,,0.00,,2013-09-05 04:13:00,
2013-09-04 22:24:00,63.0,47.0,30.03,North,5,0.0,0.0,56,0.00,,,0.00,,2013-09-05 04:24:00,
2013-09-04 22:34:00,63.0,47.0,30.03,North,5,0.0,0.0,56,0.00,,,0.00,,2013-09-05 04:34:00,
2013-09-04 22:53:00,61.0,47.0,30.04,North,5,0.0,0.0,59,0.00,,,0.00,,2013-09-05 04:53:00,
2013-09-04 23:03:00,61.0,47.0,30.04,North,5,0.0,0.0,59,0.00,,,0.00,,2013-09-05 05:03:00,
2013-09-04 23:23:00,60.0,47.0,30.01,North,5,0.0,0.0,62,0.00,,,0.00,,2013-09-05 05:23:00,
2013-09-04 23:34:00,60.0,47.0,30.01,North,5,0.0,0.0,62,0.00,,,0.00,,2013-09-05 05:34:00,
2013-09-04 23:52:00,60.0,48.0,30.04,North,5,0.0,0.0,64,0.00,,,0.00,,2013-09-05 05:52:00,